createdAt,value
2017-01-23T00:00:23.730Z,0
2017-01-23T00:01:23.790Z,0
2017-01-23T00:02:23.840Z,0
2017-01-23T00:03:23.899Z,0
2017-01-23T00:04:23.945Z,0
2017-01-23T00:05:24.013Z,0
2017-01-23T00:06:24.052Z,0
2017-01-23T00:07:24.113Z,0
2017-01-23T00:08:24.167Z,0
2017-01-23T00:09:24.218Z,0
2017-01-23T00:10:24.270Z,0
2017-01-23T00:11:24.335Z,0
2017-01-23T00:12:24.392Z,0
2017-01-23T00:13:24.480Z,0
2017-01-23T00:14:24.504Z,0
2017-01-23T00:15:24.550Z,0
2017-01-23T00:16:24.601Z,0
2017-01-23T00:17:24.663Z,0
2017-01-23T00:18:24.717Z,0
2017-01-23T00:19:24.759Z,0
2017-01-23T00:20:24.816Z,0
2017-01-23T00:21:24.873Z,0
2017-01-23T00:22:24.928Z,0
2017-01-23T00:23:24.986Z,0
2017-01-23T00:24:25.044Z,0
2017-01-23T00:25:25.094Z,0
2017-01-23T00:26:25.173Z,0
2017-01-23T00:27:25.208Z,0
2017-01-23T00:28:25.267Z,0
2017-01-23T00:29:25.310Z,0
2017-01-23T00:30:25.361Z,0
2017-01-23T00:31:25.426Z,0
2017-01-23T00:32:25.475Z,0
2017-01-23T00:33:25.524Z,0
2017-01-23T00:34:25.585Z,0
2017-01-23T00:35:25.638Z,0
2017-01-23T00:36:25.686Z,0
2017-01-23T00:37:25.753Z,0
2017-01-23T00:38:25.806Z,0
2017-01-23T00:39:25.894Z,0
2017-01-23T00:40:25.908Z,0
2017-01-23T00:41:25.971Z,0
2017-01-23T00:42:26.015Z,0
2017-01-23T00:43:26.078Z,0
2017-01-23T00:44:26.122Z,0
2017-01-23T00:45:26.172Z,0
2017-01-23T00:46:26.239Z,0
2017-01-23T00:47:26.290Z,0
2017-01-23T00:48:26.344Z,0
2017-01-23T00:49:26.394Z,0
2017-01-23T00:50:26.455Z,0
2017-01-23T00:51:26.508Z,0
2017-01-23T00:52:26.564Z,0
2017-01-23T00:53:26.617Z,0
2017-01-23T00:54:26.677Z,0
2017-01-23T00:55:26.724Z,0
2017-01-23T00:56:26.780Z,0
2017-01-23T00:57:26.841Z,0
2017-01-23T00:58:26.888Z,0
2017-01-23T00:59:26.936Z,0
2017-01-23T01:00:27.005Z,0
2017-01-23T01:01:27.048Z,0
2017-01-23T01:02:27.107Z,0
2017-01-23T01:03:27.158Z,0
2017-01-23T01:04:27.212Z,0
2017-01-23T01:05:27.268Z,0
2017-01-23T01:06:27.324Z,0
2017-01-23T01:07:27.381Z,0
2017-01-23T01:08:27.430Z,0
2017-01-23T01:09:27.483Z,0
2017-01-23T01:10:27.546Z,0
2017-01-23T01:11:27.598Z,0
2017-01-23T01:12:27.663Z,0
2017-01-23T01:13:27.712Z,0
2017-01-23T01:14:27.747Z,0
2017-01-23T01:15:27.816Z,0
2017-01-23T01:16:27.866Z,0
2017-01-23T01:17:27.924Z,0
2017-01-23T01:18:27.982Z,0
2017-01-23T01:19:28.035Z,0
2017-01-23T01:20:28.079Z,0
2017-01-23T01:21:28.141Z,0
2017-01-23T01:22:28.178Z,0
2017-01-23T01:23:28.251Z,0
2017-01-23T01:24:28.294Z,0
2017-01-23T01:25:28.356Z,0
2017-01-23T01:26:28.404Z,0
2017-01-23T01:27:28.460Z,0
2017-01-23T01:28:28.511Z,0
2017-01-23T01:29:28.569Z,0
2017-01-23T01:30:28.621Z,0
2017-01-23T01:31:28.677Z,0
2017-01-23T01:32:28.724Z,0
2017-01-23T01:33:28.789Z,0
2017-01-23T01:34:28.835Z,0
2017-01-23T01:35:28.904Z,0
2017-01-23T01:36:28.950Z,0
2017-01-23T01:37:29.005Z,0
2017-01-23T01:38:29.047Z,0
2017-01-23T01:39:29.105Z,0
2017-01-23T01:40:29.170Z,0
2017-01-23T01:41:29.226Z,0
2017-01-23T01:42:29.272Z,0
2017-01-23T01:43:29.327Z,0
2017-01-23T01:44:29.383Z,0
2017-01-23T01:45:29.443Z,0
2017-01-23T01:46:29.499Z,0
2017-01-23T01:47:29.543Z,0
2017-01-23T01:48:29.612Z,0
2017-01-23T01:49:29.647Z,0
2017-01-23T01:50:29.708Z,0
2017-01-23T01:51:29.765Z,0
2017-01-23T01:52:29.813Z,0
2017-01-23T01:53:29.872Z,0
2017-01-23T01:54:29.921Z,0
2017-01-23T01:55:29.981Z,0
2017-01-23T01:56:30.033Z,0
2017-01-23T01:57:30.094Z,0
2017-01-23T01:58:30.133Z,0
2017-01-23T01:59:30.199Z,0
2017-01-23T02:00:30.249Z,0
2017-01-23T02:01:30.300Z,0
2017-01-23T02:02:30.363Z,0
2017-01-23T02:03:30.414Z,0
2017-01-23T02:04:30.464Z,0
2017-01-23T02:05:30.532Z,0
2017-01-23T02:06:30.586Z,0
2017-01-23T02:07:30.626Z,0
2017-01-23T02:08:30.690Z,0
2017-01-23T02:09:30.736Z,0
2017-01-23T02:10:30.794Z,0
2017-01-23T02:11:30.855Z,0
2017-01-23T02:12:30.899Z,0
2017-01-23T02:13:30.951Z,0
2017-01-23T02:14:31.017Z,0
2017-01-23T02:15:31.061Z,0
2017-01-23T02:16:31.129Z,0
2017-01-23T02:17:31.169Z,0
2017-01-23T02:18:31.225Z,0
2017-01-23T02:19:31.278Z,0
2017-01-23T02:20:31.342Z,0
2017-01-23T02:21:31.379Z,0
2017-01-23T02:22:31.452Z,0
2017-01-23T02:23:31.507Z,0
2017-01-23T02:24:31.548Z,0
2017-01-23T02:25:31.612Z,0
2017-01-23T02:26:31.655Z,0
2017-01-23T02:27:31.711Z,0
2017-01-23T02:28:31.772Z,0
2017-01-23T02:29:31.820Z,0
2017-01-23T02:30:31.887Z,0
2017-01-23T02:31:31.931Z,0
2017-01-23T02:32:31.983Z,0
2017-01-23T02:33:32.053Z,0
2017-01-23T02:34:32.089Z,0
2017-01-23T02:35:32.142Z,0
2017-01-23T02:36:32.209Z,0
2017-01-23T02:37:32.258Z,0
2017-01-23T02:38:32.310Z,0
2017-01-23T02:39:32.359Z,0
2017-01-23T02:40:32.814Z,0
2017-01-23T02:41:32.486Z,0
2017-01-23T02:42:32.532Z,0
2017-01-23T02:43:32.586Z,0
2017-01-23T02:44:32.636Z,0
2017-01-23T02:45:32.685Z,0
2017-01-23T02:46:32.750Z,0
2017-01-23T02:47:32.827Z,0
2017-01-23T02:48:32.855Z,0
2017-01-23T02:49:32.898Z,0
2017-01-23T02:50:32.956Z,0
2017-01-23T02:51:33.044Z,0
2017-01-23T02:52:33.069Z,0
2017-01-23T02:53:33.124Z,0
2017-01-23T02:54:33.198Z,0
2017-01-23T02:55:33.229Z,0
2017-01-23T02:56:33.290Z,0
2017-01-23T02:57:33.336Z,0
2017-01-23T02:58:33.394Z,0
2017-01-23T02:59:33.438Z,0
2017-01-23T03:00:33.500Z,0
2017-01-23T03:01:33.563Z,0
2017-01-23T03:02:33.607Z,0
2017-01-23T03:03:33.668Z,0
2017-01-23T03:04:33.727Z,0
2017-01-23T03:05:33.771Z,0
2017-01-23T03:06:33.827Z,0
2017-01-23T03:07:33.878Z,0
2017-01-23T03:08:33.941Z,0
2017-01-23T03:09:34.007Z,0
2017-01-23T03:10:34.043Z,0
2017-01-23T03:11:34.105Z,0
2017-01-23T03:12:34.156Z,0
2017-01-23T03:13:34.208Z,0
2017-01-23T03:14:34.268Z,0
2017-01-23T03:15:34.323Z,0
2017-01-23T03:16:34.373Z,0
2017-01-23T03:17:34.414Z,0
2017-01-23T03:18:34.469Z,0
2017-01-23T03:19:34.533Z,0
2017-01-23T03:20:34.579Z,0
2017-01-23T03:21:34.635Z,0
2017-01-23T03:22:34.701Z,0
2017-01-23T03:23:34.744Z,0
2017-01-23T03:24:34.808Z,0
2017-01-23T03:25:34.844Z,0
2017-01-23T03:26:34.903Z,0
2017-01-23T03:27:34.967Z,0
2017-01-23T03:28:35.025Z,0
2017-01-23T03:29:35.068Z,0
2017-01-23T03:30:35.123Z,0
2017-01-23T03:31:35.185Z,0
2017-01-23T03:32:35.227Z,0
2017-01-23T03:33:35.287Z,0
2017-01-23T03:34:35.341Z,0
2017-01-23T03:35:35.388Z,0
2017-01-23T03:36:35.448Z,0
2017-01-23T03:37:35.528Z,0
2017-01-23T03:38:35.559Z,0
2017-01-23T03:39:35.614Z,0
2017-01-23T03:40:35.679Z,0
2017-01-23T03:41:35.725Z,0
2017-01-23T03:42:35.775Z,0
2017-01-23T03:43:35.838Z,0
2017-01-23T03:44:35.891Z,0
2017-01-23T03:45:35.944Z,0
2017-01-23T03:46:35.991Z,0
2017-01-23T03:47:36.055Z,0
2017-01-23T03:48:36.106Z,0
2017-01-23T03:49:36.535Z,0
2017-01-23T03:50:36.221Z,0
2017-01-23T03:51:36.271Z,0
2017-01-23T03:52:36.327Z,0
2017-01-23T03:53:36.370Z,0
2017-01-23T03:54:36.424Z,0
2017-01-23T03:55:36.479Z,0
2017-01-23T03:56:36.531Z,0
2017-01-23T03:57:36.601Z,0
2017-01-23T03:58:36.641Z,0
2017-01-23T03:59:36.704Z,0
2017-01-23T04:00:36.748Z,0
2017-01-23T04:01:36.804Z,0
2017-01-23T04:02:36.857Z,0
2017-01-23T04:03:36.903Z,0
2017-01-23T04:04:36.959Z,0
2017-01-23T04:05:37.014Z,0
2017-01-23T04:06:37.081Z,0
2017-01-23T04:07:37.132Z,0
2017-01-23T04:08:37.184Z,0
2017-01-23T04:09:37.266Z,0
2017-01-23T04:10:37.290Z,0
2017-01-23T04:11:37.351Z,0
2017-01-23T04:12:37.398Z,0
2017-01-23T04:13:37.459Z,0
2017-01-23T04:14:37.506Z,0
2017-01-23T04:15:37.570Z,0
2017-01-23T04:16:37.610Z,0
2017-01-23T04:17:37.679Z,0
2017-01-23T04:18:37.726Z,0
2017-01-23T04:19:37.784Z,0
2017-01-23T04:20:37.825Z,0
2017-01-23T04:21:37.883Z,0
2017-01-23T04:22:37.942Z,0
2017-01-23T04:23:37.999Z,0
2017-01-23T04:24:38.045Z,0
2017-01-23T04:25:38.133Z,0
2017-01-23T04:26:38.155Z,0
2017-01-23T04:27:38.232Z,0
2017-01-23T04:28:38.268Z,0
2017-01-23T04:29:38.319Z,0
2017-01-23T04:30:38.364Z,0
2017-01-23T04:31:38.419Z,0
2017-01-23T04:32:38.479Z,0
2017-01-23T04:33:38.524Z,0
2017-01-23T04:34:38.615Z,0
2017-01-23T04:35:38.649Z,0
2017-01-23T04:36:38.689Z,0
2017-01-23T04:37:38.772Z,0
2017-01-23T04:38:38.801Z,0
2017-01-23T04:39:38.851Z,0
2017-01-23T04:40:38.908Z,0
2017-01-23T04:41:38.955Z,0
2017-01-23T04:42:39.026Z,0
2017-01-23T04:43:39.080Z,0
2017-01-23T04:44:39.125Z,0
2017-01-23T04:45:39.177Z,0
2017-01-23T04:46:39.231Z,0
2017-01-23T04:47:39.299Z,0
2017-01-23T04:48:39.340Z,0
2017-01-23T04:49:39.389Z,0
2017-01-23T04:50:39.458Z,0
2017-01-23T04:51:39.502Z,0
2017-01-23T04:52:39.559Z,0
2017-01-23T04:53:39.618Z,0
2017-01-23T04:54:39.669Z,0
2017-01-23T04:55:39.722Z,0
2017-01-23T04:56:39.783Z,0
2017-01-23T04:57:39.843Z,0
2017-01-23T04:58:39.876Z,0
2017-01-23T04:59:39.931Z,0
2017-01-23T05:00:39.992Z,0
2017-01-23T05:01:40.043Z,0
2017-01-23T05:02:40.107Z,0
2017-01-23T05:03:40.150Z,0
2017-01-23T05:04:40.224Z,0
2017-01-23T05:05:40.256Z,0
2017-01-23T05:06:40.308Z,0
2017-01-23T05:07:40.371Z,0
2017-01-23T05:08:40.422Z,0
2017-01-23T05:09:40.484Z,0
2017-01-23T05:10:40.532Z,0
2017-01-23T05:11:40.590Z,0
2017-01-23T05:12:40.636Z,0
2017-01-23T05:13:40.703Z,0
2017-01-23T05:14:40.755Z,0
2017-01-23T05:15:40.800Z,0
2017-01-23T05:16:40.869Z,0
2017-01-23T05:17:40.907Z,0
2017-01-23T05:18:40.963Z,0
2017-01-23T05:19:41.061Z,0
2017-01-23T05:20:41.088Z,0
2017-01-23T05:21:41.139Z,0
2017-01-23T05:22:41.187Z,0
2017-01-23T05:23:41.250Z,0
2017-01-23T05:24:41.297Z,0
2017-01-23T05:25:41.345Z,0
2017-01-23T05:26:41.419Z,0
2017-01-23T05:27:41.470Z,0
2017-01-23T05:28:41.507Z,0
2017-01-23T05:29:41.568Z,0
2017-01-23T05:30:41.631Z,0
2017-01-23T05:31:41.679Z,0
2017-01-23T05:32:41.734Z,0
2017-01-23T05:33:41.794Z,0
2017-01-23T05:34:41.851Z,0
2017-01-23T05:35:41.898Z,0
2017-01-23T05:36:41.947Z,0
2017-01-23T05:37:42.007Z,0
2017-01-23T05:38:42.080Z,0
2017-01-23T05:39:42.114Z,0
2017-01-23T05:40:42.170Z,0
2017-01-23T05:41:42.217Z,0
2017-01-23T05:42:42.271Z,0
2017-01-23T05:43:42.330Z,0
2017-01-23T05:44:42.388Z,0
2017-01-23T05:45:42.447Z,0
2017-01-23T05:46:42.526Z,0
2017-01-23T05:47:42.542Z,0
2017-01-23T05:48:42.609Z,0
2017-01-23T05:49:42.657Z,0
2017-01-23T05:50:42.716Z,0
2017-01-23T05:51:42.776Z,0
2017-01-23T05:52:42.822Z,0
2017-01-23T05:53:42.873Z,0
2017-01-23T05:54:42.931Z,0
2017-01-23T05:55:42.993Z,0
2017-01-23T05:56:43.047Z,0
2017-01-23T05:57:43.088Z,0
2017-01-23T05:58:43.181Z,0
2017-01-23T05:59:43.207Z,0
2017-01-23T06:00:43.256Z,0
2017-01-23T06:01:43.325Z,0
2017-01-23T06:02:43.361Z,0
2017-01-23T06:03:43.419Z,0
2017-01-23T06:04:43.471Z,0
2017-01-23T06:05:43.534Z,0
2017-01-23T06:06:43.582Z,0
2017-01-23T06:07:43.633Z,0
2017-01-23T06:08:43.691Z,0
2017-01-23T06:09:43.744Z,0
2017-01-23T06:10:43.795Z,0
2017-01-23T06:11:43.841Z,0
2017-01-23T06:12:43.900Z,0
2017-01-23T06:13:43.951Z,0
2017-01-23T06:14:44.014Z,0
2017-01-23T06:15:44.075Z,0
2017-01-23T06:16:44.125Z,0
2017-01-23T06:17:44.173Z,0
2017-01-23T06:18:44.225Z,0
2017-01-23T06:19:44.276Z,0
2017-01-23T06:20:44.343Z,4
2017-01-23T06:21:44.392Z,4
2017-01-23T06:22:44.452Z,0
2017-01-23T06:23:44.508Z,4
2017-01-23T06:24:44.549Z,4
2017-01-23T06:25:44.607Z,0
2017-01-23T06:26:44.653Z,4
2017-01-23T06:27:44.707Z,4
2017-01-23T06:28:44.775Z,8
2017-01-23T06:29:44.832Z,8
2017-01-23T06:30:44.879Z,8
2017-01-23T06:31:44.925Z,12
2017-01-23T06:32:44.986Z,12
2017-01-23T06:33:45.041Z,16
2017-01-23T06:34:45.092Z,16
2017-01-23T06:35:45.152Z,20
2017-01-23T06:36:45.205Z,24
2017-01-23T06:37:45.253Z,28
2017-01-23T06:38:45.313Z,28
2017-01-23T06:39:45.362Z,32
2017-01-23T06:40:45.419Z,40
2017-01-23T06:41:45.471Z,44
2017-01-23T06:42:45.532Z,52
2017-01-23T06:43:45.608Z,56
2017-01-23T06:44:45.631Z,64
2017-01-23T06:45:45.682Z,72
2017-01-23T06:46:45.734Z,80
2017-01-23T06:47:45.797Z,88
2017-01-23T06:48:45.855Z,96
2017-01-23T06:49:45.912Z,108
2017-01-23T06:50:45.956Z,116
2017-01-23T06:51:46.047Z,132
2017-01-23T06:52:46.071Z,144
2017-01-23T06:53:46.121Z,172
2017-01-23T06:54:46.181Z,200
2017-01-23T06:55:46.231Z,224
2017-01-23T06:56:46.284Z,244
2017-01-23T06:57:46.352Z,268
2017-01-23T06:58:46.392Z,288
2017-01-23T06:59:46.445Z,316
2017-01-23T07:00:46.504Z,344
2017-01-23T07:01:46.556Z,368
2017-01-23T07:02:46.603Z,392
2017-01-23T07:03:46.671Z,420
2017-01-23T07:04:46.712Z,452
2017-01-23T07:05:46.776Z,484
2017-01-23T07:06:46.832Z,512
2017-01-23T07:07:46.893Z,544
2017-01-23T07:08:46.939Z,572
2017-01-23T07:09:47.001Z,596
2017-01-23T07:10:47.056Z,620
2017-01-23T07:11:47.103Z,652
2017-01-23T07:12:47.154Z,692
2017-01-23T07:13:47.236Z,728
2017-01-23T07:14:47.264Z,768
2017-01-23T07:15:47.329Z,800
2017-01-23T07:16:47.366Z,828
2017-01-23T07:17:47.420Z,848
2017-01-23T07:18:47.487Z,880
2017-01-23T07:19:47.544Z,908
2017-01-23T07:20:47.599Z,932
2017-01-23T07:21:47.644Z,952
2017-01-23T07:22:47.701Z,980
2017-01-23T07:23:47.753Z,1004
2017-01-23T07:24:47.818Z,1024
2017-01-23T07:25:47.857Z,1052
2017-01-23T07:26:47.927Z,1080
2017-01-23T07:27:47.966Z,1112
2017-01-23T07:28:48.030Z,1140
2017-01-23T07:29:48.077Z,1172
2017-01-23T07:30:48.147Z,1200
2017-01-23T07:31:48.191Z,1208
2017-01-23T07:32:48.242Z,1208
2017-01-23T07:33:48.304Z,1204
2017-01-23T07:34:48.348Z,1208
2017-01-23T07:35:48.417Z,1220
2017-01-23T07:36:48.473Z,1240
2017-01-23T07:37:48.519Z,1272
2017-01-23T07:38:48.571Z,1308
2017-01-23T07:39:48.627Z,1344
2017-01-23T07:40:48.677Z,1384
2017-01-23T07:41:48.739Z,1420
2017-01-23T07:42:48.791Z,1448
2017-01-23T07:43:48.840Z,1468
2017-01-23T07:44:48.895Z,1492
2017-01-23T07:45:48.950Z,1516
2017-01-23T07:46:49.020Z,1528
2017-01-23T07:47:49.051Z,1540
2017-01-23T07:48:49.123Z,1556
2017-01-23T07:49:49.174Z,1572
2017-01-23T07:50:49.224Z,1588
2017-01-23T07:51:49.285Z,1612
2017-01-23T07:52:49.346Z,1632
2017-01-23T07:53:49.398Z,1652
2017-01-23T07:54:49.450Z,1644
2017-01-23T07:55:49.497Z,1700
2017-01-23T07:56:49.548Z,1724
2017-01-23T07:57:49.619Z,1748
2017-01-23T07:58:49.660Z,1768
2017-01-23T07:59:49.713Z,1800
2017-01-23T08:00:49.761Z,1812
2017-01-23T08:01:49.836Z,1820
2017-01-23T08:02:49.895Z,1832
2017-01-23T08:03:49.937Z,1852
2017-01-23T08:04:49.993Z,1864
2017-01-23T08:05:50.043Z,1880
2017-01-23T08:06:50.108Z,1896
2017-01-23T08:07:50.167Z,1912
2017-01-23T08:08:50.209Z,1928
2017-01-23T08:09:50.271Z,1944
2017-01-23T08:10:50.311Z,1960
2017-01-23T08:11:50.371Z,1976
2017-01-23T08:12:50.429Z,1988
2017-01-23T08:13:50.483Z,2008
2017-01-23T08:14:50.526Z,2036
2017-01-23T08:15:50.602Z,2048
2017-01-23T08:16:50.644Z,2060
2017-01-23T08:17:50.694Z,2072
2017-01-23T08:18:50.766Z,2088
2017-01-23T08:19:50.809Z,2108
2017-01-23T08:20:50.855Z,2124
2017-01-23T08:21:50.930Z,2140
2017-01-23T08:22:50.979Z,2156
2017-01-23T08:23:51.029Z,2164
2017-01-23T08:24:51.089Z,2180
2017-01-23T08:25:51.134Z,2192
2017-01-23T08:26:51.188Z,2204
2017-01-23T08:27:51.256Z,2220
2017-01-23T08:28:51.310Z,2240
2017-01-23T08:29:51.358Z,2272
2017-01-23T08:30:51.402Z,2280
2017-01-23T08:31:51.461Z,2280
2017-01-23T08:32:51.525Z,2284
2017-01-23T08:33:51.594Z,2296
2017-01-23T08:34:51.627Z,2316
2017-01-23T08:35:51.685Z,2336
2017-01-23T08:36:51.738Z,2352
2017-01-23T08:37:51.782Z,2364
2017-01-23T08:38:51.845Z,2380
2017-01-23T08:39:51.901Z,2396
2017-01-23T08:40:51.956Z,2412
2017-01-23T08:41:51.998Z,2424
2017-01-23T08:42:52.267Z,2440
2017-01-23T08:43:52.115Z,2456
2017-01-23T08:44:52.178Z,2488
2017-01-23T08:45:52.215Z,2504
2017-01-23T08:46:52.307Z,2504
2017-01-23T08:47:52.326Z,2516
2017-01-23T08:48:52.397Z,2532
2017-01-23T08:49:52.446Z,2548
2017-01-23T08:50:52.496Z,2560
2017-01-23T08:51:52.550Z,2576
2017-01-23T08:52:52.624Z,2584
2017-01-23T08:53:52.657Z,2596
2017-01-23T08:54:52.715Z,2596
2017-01-23T08:55:52.765Z,2600
2017-01-23T08:56:52.831Z,2620
2017-01-23T08:57:52.885Z,2652
2017-01-23T08:58:52.927Z,2684
2017-01-23T08:59:52.989Z,2716
2017-01-23T09:00:53.041Z,2728
2017-01-23T09:01:53.112Z,2732
2017-01-23T09:02:53.152Z,2744
2017-01-23T09:03:53.206Z,2764
2017-01-23T09:04:53.353Z,2776
2017-01-23T09:05:53.319Z,2792
2017-01-23T09:06:53.380Z,2808
2017-01-23T09:07:53.426Z,2824
2017-01-23T09:08:53.480Z,2840
2017-01-23T09:09:53.543Z,2872
2017-01-23T09:10:53.587Z,2872
2017-01-23T09:11:53.641Z,2896
2017-01-23T09:12:53.704Z,2912
2017-01-23T09:13:53.753Z,2932
2017-01-23T09:14:53.809Z,2972
2017-01-23T09:15:53.865Z,2988
2017-01-23T09:16:54.306Z,3000
2017-01-23T09:17:53.981Z,3020
2017-01-23T09:18:54.033Z,3044
2017-01-23T09:19:54.094Z,3072
2017-01-23T09:20:54.152Z,3100
2017-01-23T09:21:54.182Z,3132
2017-01-23T09:22:54.257Z,3168
2017-01-23T09:23:54.307Z,3200
2017-01-23T09:24:54.364Z,3248
2017-01-23T09:25:54.420Z,3308
2017-01-23T09:26:54.468Z,3352
2017-01-23T09:27:54.529Z,3428
2017-01-23T09:28:54.573Z,3412
2017-01-23T09:29:54.628Z,3468
2017-01-23T09:30:54.695Z,3520
2017-01-23T09:31:55.141Z,3560
2017-01-23T09:32:54.797Z,3624
2017-01-23T09:33:54.855Z,3684
2017-01-23T09:34:54.902Z,3748
2017-01-23T09:35:54.969Z,3824
2017-01-23T09:36:55.022Z,3912
2017-01-23T09:37:55.079Z,4016
2017-01-23T09:38:55.136Z,4128
2017-01-23T09:39:55.192Z,4268
2017-01-23T09:40:55.244Z,4480
2017-01-23T09:41:55.296Z,4780
2017-01-23T09:42:55.350Z,5320
2017-01-23T09:43:55.412Z,10436
2017-01-23T09:44:55.469Z,31392
2017-01-23T09:45:55.516Z,45888
2017-01-23T09:46:55.581Z,47456
2017-01-23T09:47:55.634Z,47904
2017-01-23T09:48:55.681Z,48672
2017-01-23T09:49:55.746Z,49440
2017-01-23T09:50:55.798Z,49632
2017-01-23T09:51:55.858Z,49920
2017-01-23T09:52:55.911Z,50432
2017-01-23T09:53:55.972Z,53696
2017-01-23T09:54:56.034Z,54016
2017-01-23T09:55:56.081Z,55328
2017-01-23T09:56:56.130Z,52736
2017-01-23T09:57:56.191Z,54304
2017-01-23T09:58:56.249Z,51360
2017-01-23T09:59:56.303Z,50176
2017-01-23T10:00:56.364Z,50592
2017-01-23T10:01:56.422Z,53472
2017-01-23T10:02:56.471Z,54688
2017-01-23T10:03:56.547Z,55968
2017-01-23T10:04:56.589Z,57184
2017-01-23T10:05:56.670Z,56704
2017-01-23T10:06:56.693Z,55808
2017-01-23T10:07:56.754Z,51136
2017-01-23T10:08:56.829Z,46592
2017-01-23T10:09:56.855Z,46688
2017-01-23T10:10:56.912Z,50816
2017-01-23T10:11:56.981Z,53056
2017-01-23T10:12:57.029Z,56096
2017-01-23T10:13:57.085Z,55584
2017-01-23T10:14:57.139Z,54112
2017-01-23T10:15:57.202Z,52608
2017-01-23T10:16:57.254Z,54432
2017-01-23T10:17:57.316Z,55424
2017-01-23T10:18:57.369Z,57856
2017-01-23T10:19:57.426Z,57664
2017-01-23T10:20:57.484Z,55488
2017-01-23T10:21:57.533Z,56640
2017-01-23T10:22:57.592Z,57120
2017-01-23T10:23:57.650Z,56512
2017-01-23T10:24:57.706Z,56832
2017-01-23T10:25:57.754Z,61280
2017-01-23T10:26:57.816Z,62720
2017-01-23T10:27:57.863Z,59936
2017-01-23T10:28:57.926Z,62208
2017-01-23T10:29:57.980Z,60384
2017-01-23T10:30:58.048Z,61888
2017-01-23T10:31:58.095Z,62176
2017-01-23T10:32:58.153Z,61856
2017-01-23T10:33:58.205Z,62656
2017-01-23T10:34:58.267Z,63520
2017-01-23T10:35:58.315Z,63072
2017-01-23T10:36:58.385Z,64224
2017-01-23T10:37:58.426Z,68288
2017-01-23T10:38:58.486Z,67040
2017-01-23T10:39:58.548Z,67648
2017-01-23T10:40:58.588Z,66176
2017-01-23T10:41:58.649Z,64416
2017-01-23T10:42:58.733Z,62656
2017-01-23T10:43:58.765Z,63392
2017-01-23T10:44:58.826Z,63136
2017-01-23T10:45:58.870Z,59968
2017-01-23T10:46:58.934Z,62400
2017-01-23T10:47:58.986Z,63264
2017-01-23T10:48:59.052Z,62016
2017-01-23T10:49:59.098Z,58400
2017-01-23T10:50:59.159Z,59968
2017-01-23T10:51:59.202Z,59360
2017-01-23T10:52:59.266Z,60256
2017-01-23T10:53:59.327Z,64000
2017-01-23T10:54:59.382Z,65376
2017-01-23T10:55:59.434Z,65600
2017-01-23T10:56:59.701Z,61280
2017-01-23T10:57:59.743Z,62944
2017-01-23T10:58:59.599Z,63840
2017-01-23T10:59:59.652Z,62912
2017-01-23T11:00:59.709Z,65024
2017-01-23T11:01:59.776Z,63392
2017-01-23T11:02:59.830Z,61760
2017-01-23T11:03:59.882Z,62304
2017-01-23T11:04:59.945Z,64960
2017-01-23T11:05:59.989Z,66080
2017-01-23T11:07:00.051Z,67360
2017-01-23T11:08:00.102Z,67040
2017-01-23T11:09:00.155Z,70752
2017-01-23T11:10:00.215Z,68352
2017-01-23T11:11:00.265Z,66208
2017-01-23T11:12:00.323Z,70528
2017-01-23T11:13:00.378Z,68384
2017-01-23T11:14:00.429Z,71840
2017-01-23T11:15:00.497Z,73952
2017-01-23T11:16:00.548Z,67392
2017-01-23T11:17:00.613Z,69024
2017-01-23T11:18:00.662Z,68864
2017-01-23T11:19:00.714Z,67456
2017-01-23T11:20:00.762Z,62016
2017-01-23T11:21:00.829Z,63968
2017-01-23T11:22:00.879Z,58304
2017-01-23T11:23:00.938Z,49728
2017-01-23T11:24:00.987Z,48032
2017-01-23T11:25:01.047Z,41248
2017-01-23T11:26:01.102Z,35584
2017-01-23T11:27:01.172Z,34208
2017-01-23T11:28:01.212Z,32864
2017-01-23T11:29:01.274Z,37312
2017-01-23T11:30:01.326Z,39232
2017-01-23T11:31:01.377Z,44224
2017-01-23T11:32:01.428Z,52352
2017-01-23T11:33:01.496Z,55168
2017-01-23T11:34:01.552Z,64064
2017-01-23T11:35:01.606Z,67328
2017-01-23T11:36:01.655Z,65312
2017-01-23T11:37:01.717Z,65920
2017-01-23T11:38:01.764Z,67648
2017-01-23T11:39:01.834Z,66976
2017-01-23T11:40:01.878Z,67392
2017-01-23T11:41:01.942Z,68896
2017-01-23T11:42:01.992Z,65056
2017-01-23T11:43:02.061Z,69216
2017-01-23T11:44:02.097Z,59296
2017-01-23T11:45:02.160Z,58112
2017-01-23T11:46:02.214Z,61920
2017-01-23T11:47:02.270Z,61472
2017-01-23T11:48:02.322Z,58688
2017-01-23T11:49:02.407Z,58240
2017-01-23T11:50:02.438Z,60640
2017-01-23T11:51:02.508Z,68544
2017-01-23T11:52:02.552Z,61440
2017-01-23T11:53:02.604Z,62336
2017-01-23T11:54:02.658Z,63648
2017-01-23T11:55:02.722Z,67488
2017-01-23T11:56:02.780Z,65952
2017-01-23T11:57:02.821Z,65088
2017-01-23T11:58:02.888Z,64128
2017-01-23T11:59:02.943Z,62400
2017-01-23T12:00:02.999Z,63936
2017-01-23T12:01:03.041Z,63072
2017-01-23T12:02:03.314Z,61792
2017-01-23T12:03:03.348Z,63584
2017-01-23T12:04:03.222Z,61600
2017-01-23T12:05:03.268Z,62400
2017-01-23T12:06:03.710Z,64640
2017-01-23T12:07:03.393Z,60864
2017-01-23T12:08:03.441Z,61312
2017-01-23T12:09:03.504Z,60608
2017-01-23T12:10:03.929Z,63360
2017-01-23T12:11:03.612Z,63616
2017-01-23T12:12:03.669Z,61632
2017-01-23T12:13:03.715Z,60896
2017-01-23T12:14:03.778Z,58176
2017-01-23T12:15:03.829Z,58752
2017-01-23T12:16:03.888Z,58560
2017-01-23T12:17:03.941Z,60928
2017-01-23T12:18:03.993Z,53952
2017-01-23T12:19:04.055Z,48480
2017-01-23T12:20:04.108Z,53408
2017-01-23T12:21:04.174Z,56704
2017-01-23T12:22:04.219Z,56160
2017-01-23T12:23:04.281Z,56064
2017-01-23T12:24:04.334Z,58112
2017-01-23T12:25:04.390Z,57088
2017-01-23T12:26:04.432Z,58464
2017-01-23T12:27:04.503Z,59008
2017-01-23T12:28:04.543Z,56832
2017-01-23T12:29:04.598Z,58912
2017-01-23T12:30:04.668Z,56480
2017-01-23T12:31:04.716Z,55808
2017-01-23T12:32:04.776Z,55008
2017-01-23T12:33:04.825Z,55744
2017-01-23T12:34:04.878Z,57984
2017-01-23T12:35:05.155Z,55552
2017-01-23T12:36:05.401Z,55552
2017-01-23T12:37:05.435Z,55552
2017-01-23T12:38:05.108Z,53440
2017-01-23T12:39:05.162Z,52672
2017-01-23T12:40:05.218Z,49632
2017-01-23T12:41:05.473Z,46304
2017-01-23T12:42:05.335Z,48640
2017-01-23T12:43:05.393Z,49984
2017-01-23T12:44:05.445Z,50784
2017-01-23T12:45:05.501Z,51968
2017-01-23T12:46:05.552Z,54208
2017-01-23T12:47:05.615Z,54432
2017-01-23T12:48:06.043Z,53056
2017-01-23T12:49:05.724Z,51872
2017-01-23T12:50:05.773Z,52288
2017-01-23T12:51:05.841Z,51872
2017-01-23T12:52:05.890Z,51200
2017-01-23T12:53:05.938Z,51264
2017-01-23T12:54:05.996Z,51424
2017-01-23T12:55:06.056Z,50464
2017-01-23T12:56:06.114Z,52032
2017-01-23T12:57:06.170Z,54432
2017-01-23T12:58:06.232Z,52896
2017-01-23T12:59:06.280Z,52352
2017-01-23T13:00:06.938Z,50400
2017-01-23T13:01:06.402Z,50848
2017-01-23T13:02:06.455Z,51680
2017-01-23T13:03:06.510Z,52000
2017-01-23T13:04:06.559Z,52352
2017-01-23T13:05:06.618Z,52832
2017-01-23T13:06:06.868Z,50240
2017-01-23T13:07:06.923Z,47840
2017-01-23T13:08:06.777Z,49024
2017-01-23T13:09:06.849Z,49952
2017-01-23T13:10:06.898Z,49440
2017-01-23T13:11:06.954Z,48704
2017-01-23T13:12:07.016Z,49664
2017-01-23T13:13:07.066Z,48128
2017-01-23T13:14:07.126Z,47872
2017-01-23T13:15:07.188Z,48928
2017-01-23T13:16:07.235Z,46848
2017-01-23T13:17:07.299Z,46752
2017-01-23T13:18:07.353Z,48160
2017-01-23T13:19:07.402Z,47808
2017-01-23T13:20:07.458Z,47264
2017-01-23T13:21:07.516Z,47552
2017-01-23T13:22:07.578Z,42688
2017-01-23T13:23:07.646Z,41824
2017-01-23T13:24:07.682Z,40992
2017-01-23T13:25:07.744Z,34944
2017-01-23T13:26:07.799Z,31040
2017-01-23T13:27:07.846Z,31392
2017-01-23T13:28:07.911Z,35488
2017-01-23T13:29:07.966Z,41120
2017-01-23T13:30:08.028Z,44032
2017-01-23T13:31:08.083Z,42880
2017-01-23T13:32:08.135Z,42144
2017-01-23T13:33:08.200Z,44832
2017-01-23T13:34:08.250Z,44640
2017-01-23T13:35:08.311Z,41728
2017-01-23T13:36:08.557Z,40320
2017-01-23T13:37:23.354Z,38976
2017-01-23T13:38:08.477Z,39168
2017-01-23T13:39:08.527Z,39520
2017-01-23T13:40:08.589Z,39936
2017-01-23T13:41:08.639Z,41056
2017-01-23T13:42:08.695Z,40896
2017-01-23T13:43:08.768Z,40352
2017-01-23T13:44:08.804Z,38304
2017-01-23T13:45:08.857Z,36128
2017-01-23T13:46:08.926Z,36960
2017-01-23T13:47:08.988Z,37760
2017-01-23T13:48:09.036Z,37408
2017-01-23T13:49:09.126Z,37088
2017-01-23T13:50:09.146Z,37536
2017-01-23T13:51:09.216Z,39136
2017-01-23T13:52:09.254Z,39424